createdAt,value
2022-12-19T00:00:51.164Z,20.85
2022-12-19T00:03:23.645Z,21.52
2022-12-19T00:05:53.573Z,21.27
2022-12-19T00:08:23.422Z,22.27
2022-12-19T00:10:59.240Z,20.67
2022-12-19T00:13:31.207Z,21.75
2022-12-19T00:16:05.710Z,21.27
2022-12-19T00:18:38.270Z,21.08
2022-12-19T00:21:09.326Z,21.95
2022-12-19T00:23:39.333Z,21.77
2022-12-19T00:26:18.007Z,20.33
2022-12-19T00:28:50.921Z,20.15
2022-12-19T00:31:22.376Z,22.25
2022-12-19T00:33:54.851Z,21.35
2022-12-19T00:36:29.213Z,20.65
2022-12-19T00:39:01.425Z,20.23
2022-12-19T00:41:41.725Z,22.00
2022-12-19T00:44:15.959Z,21.45
2022-12-19T00:46:53.034Z,22.65
2022-12-19T00:49:25.810Z,20.58
2022-12-19T00:51:57.397Z,22.05
2022-12-19T00:54:27.627Z,21.88
2022-12-19T00:56:57.786Z,21.52
2022-12-19T00:59:27.778Z,19.92
2022-12-19T01:01:57.786Z,19.63
2022-12-19T01:04:31.855Z,21.10
2022-12-19T01:07:05.835Z,21.08
2022-12-19T01:09:37.198Z,21.33
2022-12-19T01:12:24.728Z,20.52
2022-12-19T01:14:57.739Z,21.02
2022-12-19T01:17:44.468Z,20.38
2022-12-19T01:20:22.253Z,22.15
2022-12-19T01:25:31.113Z,20.13
2022-12-19T01:28:01.143Z,19.58
2022-12-19T01:30:31.766Z,19.48
2022-12-19T01:33:03.171Z,20.75
2022-12-19T01:35:35.748Z,20.70
2022-12-19T01:38:08.185Z,18.98
2022-12-19T01:40:39.090Z,20.33
2022-12-19T01:43:12.542Z,18.83
2022-12-19T01:45:45.918Z,18.85
2022-12-19T01:48:23.511Z,20.52
2022-12-19T01:51:02.594Z,21.77
2022-12-19T01:53:48.387Z,21.77
2022-12-19T01:56:23.116Z,19.40
2022-12-19T01:59:06.322Z,19.13
2022-12-19T02:01:40.035Z,19.90
2022-12-19T02:04:22.732Z,19.42
2022-12-19T02:06:58.580Z,19.55
2022-12-19T02:09:28.835Z,18.77
2022-12-19T02:11:58.874Z,18.55
2022-12-19T02:14:28.966Z,19.20
2022-12-19T02:17:08.599Z,18.90
2022-12-19T02:20:26.434Z,18.45
2022-12-19T02:23:31.291Z,19.20
2022-12-19T02:26:18.636Z,21.35
2022-12-19T02:29:18.469Z,19.77
2022-12-19T02:31:52.816Z,18.75
2022-12-19T02:34:31.124Z,19.13
2022-12-19T02:37:05.819Z,20.17
2022-12-19T02:39:45.629Z,19.90
2022-12-19T02:42:24.930Z,20.17
2022-12-19T02:44:57.605Z,18.00
2022-12-19T02:47:31.453Z,20.05
2022-12-19T02:50:01.460Z,19.42
2022-12-19T02:52:50.228Z,20.08
2022-12-19T02:55:26.768Z,18.30
2022-12-19T02:58:50.988Z,18.70
2022-12-19T03:01:38.300Z,19.33
2022-12-19T03:04:20.629Z,18.58
2022-12-19T03:06:56.677Z,19.88
2022-12-19T03:09:36.200Z,20.02
2022-12-19T03:12:17.796Z,19.13
2022-12-19T03:14:49.985Z,18.58
2022-12-19T03:17:19.900Z,20.48
2022-12-19T03:19:52.680Z,20.13
2022-12-19T03:22:22.999Z,19.48
2022-12-19T03:24:53.609Z,19.75
2022-12-19T03:27:28.530Z,19.35
2022-12-19T03:30:04.673Z,18.50
2022-12-19T03:32:37.091Z,18.67
2022-12-19T03:35:16.383Z,20.08
2022-12-19T03:37:47.898Z,20.75
2022-12-19T03:40:22.224Z,19.65
2022-12-19T03:43:08.984Z,20.35
2022-12-19T03:45:48.566Z,20.08
2022-12-19T03:48:25.420Z,20.17
2022-12-19T03:51:12.110Z,18.65
2022-12-19T03:53:52.860Z,20.65
2022-12-19T03:56:33.116Z,20.33
2022-12-19T03:59:08.540Z,20.27
2022-12-19T04:01:39.557Z,19.67
2022-12-19T04:04:14.007Z,19.52
2022-12-19T04:06:48.517Z,20.92
2022-12-19T04:09:22.630Z,20.10
2022-12-19T04:11:57.255Z,19.48
2022-12-19T04:14:31.570Z,17.27
2022-12-19T04:17:11.304Z,19.60
2022-12-19T04:19:47.949Z,19.33
2022-12-19T04:22:28.709Z,18.80
2022-12-19T04:25:01.447Z,19.02
2022-12-19T04:27:32.526Z,18.90
2022-12-19T04:30:03.978Z,19.45
2022-12-19T04:32:38.360Z,18.77
2022-12-19T04:35:09.460Z,19.00
2022-12-19T04:37:42.319Z,20.10
2022-12-19T04:40:15.176Z,18.33
2022-12-19T04:42:45.196Z,19.90
2022-12-19T04:45:15.055Z,18.42
2022-12-19T04:47:45.108Z,19.50
2022-12-19T04:50:14.961Z,19.65
2022-12-19T04:52:47.521Z,18.33
2022-12-19T04:55:17.639Z,17.40
2022-12-19T04:57:47.462Z,18.85
2022-12-19T05:00:19.083Z,19.30
2022-12-19T05:02:49.062Z,19.52
2022-12-19T05:05:19.336Z,18.40
2022-12-19T05:07:51.907Z,18.05
2022-12-19T05:10:21.837Z,17.35
2022-12-19T05:12:51.664Z,18.08
2022-12-19T05:15:21.635Z,18.33
2022-12-19T05:17:51.447Z,18.92
2022-12-19T05:20:21.520Z,20.05
2022-12-19T05:22:54.022Z,19.42
2022-12-19T05:25:23.840Z,18.23
2022-12-19T05:27:53.649Z,17.38
2022-12-19T05:30:24.571Z,17.65
2022-12-19T05:32:54.445Z,18.48
2022-12-19T05:35:24.304Z,16.70
2022-12-19T05:37:56.716Z,18.33
2022-12-19T05:40:26.564Z,19.10
2022-12-19T05:42:56.439Z,18.27
2022-12-19T05:45:26.489Z,16.13
2022-12-19T05:48:01.084Z,17.77
2022-12-19T05:50:31.336Z,17.63
2022-12-19T05:53:03.791Z,18.27
2022-12-19T05:55:33.723Z,18.58
2022-12-19T05:58:03.525Z,19.00
2022-12-19T06:00:33.400Z,16.35
2022-12-19T06:03:03.430Z,17.98
2022-12-19T06:05:33.749Z,17.80
2022-12-19T06:08:06.313Z,16.80
2022-12-19T06:10:36.704Z,18.20
2022-12-19T06:13:06.681Z,16.98
2022-12-19T06:15:36.525Z,16.27
2022-12-19T06:18:06.531Z,16.90
2022-12-19T06:20:36.366Z,16.05
2022-12-19T06:23:08.795Z,17.33
2022-12-19T06:25:38.856Z,17.35
2022-12-19T06:28:08.843Z,15.68
2022-12-19T06:30:38.787Z,17.73
2022-12-19T06:33:08.841Z,16.45
2022-12-19T06:35:38.801Z,16.77
2022-12-19T06:38:11.316Z,17.25
2022-12-19T06:40:57.960Z,17.50
2022-12-19T06:43:28.810Z,16.63
2022-12-19T06:46:00.889Z,15.52
2022-12-19T06:48:31.316Z,16.90
2022-12-19T06:51:01.287Z,16.65
2022-12-19T06:53:33.935Z,16.52
2022-12-19T06:56:03.860Z,16.25
2022-12-19T06:58:34.074Z,16.52
2022-12-19T07:01:04.192Z,16.92
2022-12-19T07:03:39.150Z,16.80
2022-12-19T07:06:10.549Z,15.85
2022-12-19T07:08:43.294Z,16.83
2022-12-19T07:11:13.193Z,17.40
2022-12-19T07:13:43.153Z,16.25
2022-12-19T07:16:13.304Z,15.20
2022-12-19T07:18:44.653Z,16.50
2022-12-19T07:21:14.895Z,16.23
2022-12-19T07:23:47.613Z,16.95
2022-12-19T07:26:17.576Z,16.52
2022-12-19T07:28:47.462Z,17.27
2022-12-19T07:31:17.364Z,15.65
2022-12-19T07:33:47.230Z,16.55
2022-12-19T07:36:17.048Z,15.35
2022-12-19T07:38:50.659Z,16.95
2022-12-19T07:41:20.574Z,15.60
2022-12-19T07:43:50.408Z,16.27
2022-12-19T07:46:20.383Z,14.43
2022-12-19T07:48:50.737Z,15.23
2022-12-19T07:51:20.588Z,16.27
2022-12-19T07:53:53.104Z,16.45
2022-12-19T07:56:23.062Z,16.45
2022-12-19T07:58:53.033Z,16.70
2022-12-19T08:01:23.083Z,15.85
2022-12-19T08:03:52.992Z,16.90
2022-12-19T08:06:23.491Z,15.13
2022-12-19T08:08:56.146Z,15.32
2022-12-19T08:11:30.087Z,15.65
2022-12-19T08:14:00.776Z,14.77
2022-12-19T08:16:31.010Z,15.20
2022-12-19T08:19:01.005Z,17.17
2022-12-19T08:21:30.825Z,16.40
2022-12-19T08:24:03.432Z,15.57
2022-12-19T08:26:39.474Z,16.08
2022-12-19T08:29:11.847Z,14.35
2022-12-19T08:31:41.728Z,15.93
2022-12-19T08:34:11.656Z,15.05
2022-12-19T08:36:42.049Z,15.82
2022-12-19T08:39:14.566Z,19.13
2022-12-19T08:41:44.732Z,18.85
2022-12-19T08:44:15.497Z,15.82
2022-12-19T08:46:50.001Z,16.67
2022-12-19T08:49:20.332Z,14.90
2022-12-19T08:51:50.543Z,15.20
2022-12-19T08:54:23.029Z,16.40
2022-12-19T08:56:52.982Z,15.60
2022-12-19T08:59:25.661Z,17.73
2022-12-19T09:02:02.511Z,15.70
2022-12-19T09:05:59.414Z,16.33
2022-12-19T09:07:23.386Z,16.92
2022-12-19T09:09:55.894Z,15.60
2022-12-19T09:12:25.763Z,17.17
2022-12-19T09:14:55.621Z,19.33
2022-12-19T09:17:25.467Z,18.92
2022-12-19T09:19:55.791Z,19.58
2022-12-19T09:22:29.420Z,17.98
2022-12-19T09:25:02.436Z,18.10
2022-12-19T09:27:42.488Z,17.38
2022-12-19T09:30:22.276Z,14.23
2022-12-19T09:32:52.202Z,15.38
2022-12-19T09:35:25.707Z,14.82
2022-12-19T09:38:00.648Z,15.98
2022-12-19T09:40:45.653Z,17.13
2022-12-19T09:43:40.976Z,15.07
2022-12-19T09:46:19.893Z,16.08
2022-12-19T09:48:54.869Z,20.10
2022-12-19T09:51:36.893Z,17.88
2022-12-19T09:54:15.346Z,17.95
2022-12-19T09:56:48.471Z,15.75
2022-12-19T09:59:41.233Z,15.35
2022-12-19T10:02:33.264Z,16.17
2022-12-19T10:06:49.731Z,15.90
2022-12-19T10:08:21.297Z,17.90
2022-12-19T10:12:37.820Z,17.58
2022-12-19T10:14:24.041Z,15.00
2022-12-19T10:20:16.624Z,15.07
2022-12-19T10:23:01.296Z,15.85
2022-12-19T10:25:54.216Z,17.50
2022-12-19T10:28:49.705Z,18.65
2022-12-19T10:34:01.789Z,15.20
2022-12-19T10:37:04.649Z,15.10
2022-12-19T10:39:34.774Z,14.65
2022-12-19T10:42:14.280Z,16.40
2022-12-19T10:44:47.659Z,16.25
2022-12-19T10:47:20.481Z,14.98
2022-12-19T10:49:50.366Z,15.75
2022-12-19T10:52:55.572Z,15.57
2022-12-19T10:55:42.678Z,14.10
2022-12-19T10:58:27.155Z,14.32
2022-12-19T11:01:17.047Z,15.38
2022-12-19T11:03:51.705Z,15.20
2022-12-19T11:06:50.132Z,15.35
2022-12-19T11:09:27.704Z,14.05
2022-12-19T11:15:27.126Z,14.32
2022-12-19T11:21:10.655Z,14.80
2022-12-19T11:27:49.053Z,14.63
2022-12-19T11:29:27.630Z,14.43
2022-12-19T11:30:26.150Z,13.95
2022-12-19T11:30:38.375Z,14.32
2022-12-19T11:32:46.067Z,12.38
2022-12-19T11:35:24.439Z,13.35
2022-12-19T11:37:58.553Z,13.80
2022-12-19T11:40:36.641Z,14.07
2022-12-19T11:46:19.391Z,14.32
2022-12-19T11:48:56.725Z,14.55
2022-12-19T11:51:37.516Z,14.70
2022-12-19T11:54:18.606Z,14.07
2022-12-19T11:56:48.666Z,13.77
2022-12-19T11:59:26.735Z,15.70
2022-12-19T12:02:28.165Z,13.43
2022-12-19T12:05:22.310Z,14.90
2022-12-19T12:09:30.395Z,15.55
2022-12-19T12:18:20.387Z,14.65
2022-12-19T12:23:35.302Z,15.88
2022-12-19T12:31:10.540Z,14.82
2022-12-19T12:31:15.525Z,14.88
2022-12-19T12:31:28.277Z,13.85
2022-12-19T12:31:46.047Z,14.30
2022-12-19T12:32:03.742Z,14.93
2022-12-19T12:39:03.764Z,14.63
2022-12-19T12:41:57.250Z,13.82
2022-12-19T12:44:33.363Z,14.23
2022-12-19T12:47:13.100Z,15.68
2022-12-19T12:49:49.139Z,16.80
2022-12-19T12:52:23.366Z,17.20
2022-12-19T12:54:54.117Z,14.52
2022-12-19T12:57:39.203Z,16.52
2022-12-19T13:03:07.129Z,15.05
2022-12-19T13:05:58.893Z,17.00
2022-12-19T13:08:41.423Z,16.73
2022-12-19T13:11:38.710Z,15.98
2022-12-19T13:14:12.284Z,19.95
2022-12-19T13:16:56.049Z,17.40
2022-12-19T13:19:29.477Z,18.27
2022-12-19T13:22:25.421Z,18.73
2022-12-19T13:24:56.974Z,17.75
2022-12-19T13:27:44.565Z,18.52
2022-12-19T13:30:21.473Z,18.55
2022-12-19T13:33:11.836Z,19.52
2022-12-19T13:39:51.894Z,17.73
2022-12-19T13:39:59.028Z,17.85
2022-12-19T13:41:56.816Z,20.23
2022-12-19T13:44:27.277Z,20.13
2022-12-19T13:46:59.013Z,18.77
2022-12-19T13:49:35.389Z,19.15
2022-12-19T13:52:07.281Z,20.35
2022-12-19T13:54:49.680Z,19.25
2022-12-19T13:57:28.264Z,20.70
2022-12-19T14:00:02.330Z,18.15
2022-12-19T14:02:44.154Z,19.30
2022-12-19T14:05:36.015Z,21.80
2022-12-19T14:08:23.571Z,19.98
2022-12-19T14:11:39.675Z,19.58
2022-12-19T14:14:10.708Z,21.33
2022-12-19T14:16:45.776Z,20.27
2022-12-19T14:19:23.147Z,19.80
2022-12-19T14:22:06.737Z,21.17
2022-12-19T14:24:42.804Z,20.35
2022-12-19T14:28:19.052Z,20.60
2022-12-19T14:30:27.494Z,19.95
2022-12-19T14:33:43.819Z,21.48
2022-12-19T14:36:05.957Z,21.00
2022-12-19T14:39:23.276Z,22.75
2022-12-19T14:42:00.620Z,21.27
2022-12-19T14:54:07.204Z,20.83
2022-12-19T14:54:12.113Z,21.40
2022-12-19T14:54:18.065Z,22.38
2022-12-19T14:54:50.511Z,19.80
2022-12-19T14:56:53.782Z,20.67
2022-12-19T14:59:29.759Z,19.83
2022-12-19T15:02:15.640Z,18.95
2022-12-19T15:05:06.172Z,19.65
2022-12-19T15:07:37.689Z,19.10
2022-12-19T15:11:04.725Z,20.67
2022-12-19T15:14:54.139Z,22.42
2022-12-19T15:16:28.650Z,20.73
2022-12-19T15:19:03.393Z,20.27
2022-12-19T15:21:34.268Z,20.85
2022-12-19T15:24:04.166Z,19.33
2022-12-19T15:26:38.876Z,20.35
2022-12-19T15:31:51.477Z,19.95
2022-12-19T15:34:40.456Z,21.35
2022-12-19T15:37:16.480Z,18.73
2022-12-19T15:39:47.577Z,20.60
2022-12-19T15:42:24.506Z,20.80
2022-12-19T15:44:58.044Z,21.02
2022-12-19T15:47:34.210Z,20.17
2022-12-19T15:50:20.801Z,20.33
2022-12-19T15:52:51.071Z,19.88
2022-12-19T15:55:23.030Z,21.02
2022-12-19T15:57:56.503Z,21.58
2022-12-19T16:00:30.893Z,19.77
2022-12-19T16:05:53.487Z,20.13
2022-12-19T16:08:26.248Z,20.13
2022-12-19T16:11:01.817Z,20.23
2022-12-19T16:13:34.771Z,20.58
2022-12-19T16:16:15.144Z,20.10
2022-12-19T16:18:47.434Z,19.63
2022-12-19T16:21:33.751Z,21.20
2022-12-19T16:24:04.074Z,21.67
2022-12-19T16:26:37.863Z,21.67
2022-12-19T16:29:08.223Z,21.60
2022-12-19T16:31:38.132Z,20.60
2022-12-19T16:34:17.902Z,20.08
2022-12-19T16:36:51.349Z,19.83
2022-12-19T16:39:21.272Z,18.95
2022-12-19T16:41:51.162Z,19.85
2022-12-19T16:44:23.935Z,19.63
2022-12-19T16:46:54.756Z,18.73
2022-12-19T16:49:25.576Z,18.90
2022-12-19T16:51:58.018Z,19.15
2022-12-19T16:54:27.863Z,21.13
2022-12-19T16:56:58.118Z,20.13
2022-12-19T16:59:33.144Z,19.98
2022-12-19T17:02:04.158Z,20.30
2022-12-19T17:04:34.207Z,18.73
2022-12-19T17:07:13.757Z,19.10
2022-12-19T17:09:43.807Z,19.83
2022-12-19T17:12:20.754Z,19.85
2022-12-19T17:14:50.896Z,19.90
2022-12-19T17:17:20.785Z,17.17
2022-12-19T17:19:50.759Z,19.77
2022-12-19T17:22:23.302Z,18.80
2022-12-19T17:24:53.415Z,20.35
2022-12-19T17:27:23.482Z,19.40
2022-12-19T17:29:53.541Z,19.38
2022-12-19T17:32:24.564Z,18.27
2022-12-19T17:34:55.514Z,17.60
2022-12-19T17:37:27.967Z,15.50
2022-12-19T17:39:57.853Z,17.08
2022-12-19T17:42:32.126Z,17.52
2022-12-19T17:45:09.049Z,19.02
2022-12-19T17:47:38.942Z,19.33
2022-12-19T17:50:13.628Z,19.77
2022-12-19T17:52:46.049Z,19.05
2022-12-19T17:55:22.045Z,19.20
2022-12-19T17:57:53.014Z,18.40
2022-12-19T18:00:30.409Z,19.40
2022-12-19T18:03:05.556Z,19.70
2022-12-19T18:08:24.394Z,19.08
2022-12-19T18:10:56.728Z,18.45
2022-12-19T18:13:27.496Z,17.02
2022-12-19T18:16:01.417Z,17.08
2022-12-19T18:18:34.451Z,16.53
2022-12-19T18:21:05.895Z,17.63
2022-12-19T18:23:38.334Z,17.25
2022-12-19T18:26:08.509Z,18.02
2022-12-19T18:28:38.347Z,17.17
2022-12-19T18:31:19.789Z,17.98
2022-12-19T18:33:51.268Z,17.65
2022-12-19T18:36:25.524Z,17.33
2022-12-19T18:38:59.547Z,16.48
2022-12-19T18:41:29.601Z,17.45
2022-12-19T18:43:59.437Z,16.63
2022-12-19T18:46:33.237Z,18.77
2022-12-19T18:49:03.565Z,17.07
2022-12-19T18:51:33.691Z,16.92
2022-12-19T18:54:13.310Z,16.38
2022-12-19T18:56:43.223Z,17.05
2022-12-19T18:59:13.104Z,16.55
2022-12-19T19:01:47.285Z,16.08
2022-12-19T19:04:19.037Z,14.98
2022-12-19T19:06:52.656Z,15.50
2022-12-19T19:09:25.469Z,15.47
2022-12-19T19:11:55.345Z,16.38
2022-12-19T19:14:25.223Z,15.05
2022-12-19T19:16:55.225Z,16.08
2022-12-19T19:19:25.128Z,14.10
2022-12-19T19:21:54.989Z,17.13
2022-12-19T19:24:27.558Z,16.05
2022-12-19T19:26:57.496Z,15.45
2022-12-19T19:29:27.370Z,16.88
2022-12-19T19:31:57.377Z,16.90
2022-12-19T19:34:30.753Z,15.02
2022-12-19T19:37:04.059Z,16.38
2022-12-19T19:39:37.905Z,16.20
2022-12-19T19:42:08.388Z,16.63
2022-12-19T19:44:38.278Z,16.13
2022-12-19T19:47:08.185Z,17.30
2022-12-19T19:49:38.162Z,17.27
2022-12-19T19:52:08.289Z,17.77
2022-12-19T19:54:40.804Z,17.63
2022-12-19T19:57:10.740Z,16.75
2022-12-19T19:59:40.599Z,17.80
2022-12-19T20:02:12.853Z,16.30
2022-12-19T20:04:46.963Z,15.15
2022-12-19T20:07:17.356Z,14.93
2022-12-19T20:09:49.828Z,15.77
2022-12-19T20:12:19.692Z,14.95
2022-12-19T20:14:51.034Z,15.57
2022-12-19T20:17:20.917Z,16.42
2022-12-19T20:19:50.960Z,16.77
2022-12-19T20:22:21.362Z,16.40
2022-12-19T20:24:54.014Z,15.90
2022-12-19T20:27:24.080Z,15.65
2022-12-19T20:29:54.465Z,17.05
2022-12-19T20:32:24.312Z,16.08
2022-12-19T20:34:55.341Z,15.38
2022-12-19T20:37:25.345Z,15.80
2022-12-19T20:39:57.785Z,16.20
2022-12-19T20:42:27.667Z,15.82
2022-12-19T20:44:57.499Z,15.60
2022-12-19T20:47:27.373Z,15.52
2022-12-19T20:49:57.243Z,14.52
2022-12-19T20:52:27.288Z,14.25
2022-12-19T20:54:59.724Z,14.45
2022-12-19T20:57:30.977Z,16.10
2022-12-19T21:00:00.838Z,15.52
2022-12-19T21:02:46.229Z,16.40
2022-12-19T21:05:20.849Z,16.02
2022-12-19T21:07:50.748Z,16.70
2022-12-19T21:10:23.190Z,16.23
2022-12-19T21:12:53.020Z,16.58
2022-12-19T21:15:23.152Z,16.45
2022-12-19T21:17:52.984Z,17.40
2022-12-19T21:20:22.865Z,14.52
2022-12-19T21:22:52.739Z,15.48
2022-12-19T21:25:25.271Z,16.08
2022-12-19T21:27:55.109Z,15.55
2022-12-19T21:30:25.114Z,17.27
2022-12-19T21:32:55.646Z,17.58
2022-12-19T21:35:25.952Z,17.42
2022-12-19T21:37:55.796Z,15.52
2022-12-19T21:40:28.238Z,16.63
2022-12-19T21:42:58.128Z,15.80
2022-12-19T21:45:27.953Z,14.98
2022-12-19T21:47:57.793Z,16.40
2022-12-19T21:50:27.635Z,15.52
2022-12-19T21:52:57.506Z,16.55
2022-12-19T21:55:29.969Z,15.65
2022-12-19T21:57:59.788Z,17.65
2022-12-19T22:00:29.646Z,16.42
2022-12-19T22:03:13.881Z,16.58
2022-12-19T22:08:14.843Z,16.63
2022-12-19T22:10:47.307Z,17.05
2022-12-19T22:13:17.176Z,18.65
2022-12-19T22:15:47.072Z,18.05
2022-12-19T22:18:16.898Z,17.33
2022-12-19T22:20:47.560Z,18.35
2022-12-19T22:23:17.408Z,17.98
2022-12-19T22:25:49.838Z,17.38
2022-12-19T22:28:19.666Z,17.98
2022-12-19T22:30:49.525Z,19.00
2022-12-19T22:33:19.404Z,19.23
2022-12-19T22:35:49.269Z,17.25
2022-12-19T22:38:19.121Z,17.63
2022-12-19T22:40:51.755Z,18.00
2022-12-19T22:43:21.716Z,17.30
2022-12-19T22:45:52.122Z,18.42
2022-12-19T22:48:22.320Z,17.30
2022-12-19T22:50:52.544Z,19.55
2022-12-19T22:53:22.651Z,19.95
2022-12-19T22:55:55.235Z,19.80
2022-12-19T22:58:25.303Z,20.25
2022-12-19T23:00:55.215Z,21.15
2022-12-19T23:03:25.142Z,20.00
2022-12-19T23:05:55.120Z,19.63
2022-12-19T23:08:24.996Z,19.50
2022-12-19T23:10:57.695Z,18.85
2022-12-19T23:13:28.522Z,19.33
2022-12-19T23:15:59.782Z,18.20
2022-12-19T23:18:29.730Z,19.55
2022-12-19T23:21:09.039Z,19.38
2022-12-19T23:23:40.406Z,18.60
2022-12-19T23:26:16.354Z,16.90
2022-12-19T23:28:47.983Z,18.85
2022-12-19T23:31:18.031Z,19.38
2022-12-19T23:33:47.988Z,19.02
2022-12-19T23:36:38.182Z,17.90
2022-12-19T23:39:09.275Z,17.05
2022-12-19T23:41:42.660Z,18.42
2022-12-19T23:44:13.642Z,16.75
2022-12-19T23:46:43.504Z,18.60
2022-12-19T23:49:13.539Z,16.08
2022-12-19T23:51:43.399Z,17.92
2022-12-19T23:54:13.793Z,17.23
2022-12-19T23:56:46.227Z,18.23
2022-12-19T23:59:16.055Z,17.52
